In Rescue
 
Open Full Screen Window  High Contrast Mode
Wind Gusting 00 knots
05
November 14, 2019 2:58 PM EST
Weather Information
Wind Direction
  220 °
Wind Speed
  05 kt (6 mph)
Wind Gust
  00 kt (0 mph)
Altimeter
30.08 in
Visibility
10 SM
Temperature
-02° C
28° F
Dewpoint
-04° C
25° F
Humidity
86%
1hr Rain Fall
00.00 in.
24hr Rain Fall
00.00 in.
Sky Condition
Overcast @ 2,700 ft
MVFR

METAR KY31 141958Z AUTO 22005KT 10SM OVC027 M02/M04 A3008 RMK AO2 T10161040

FAA Disclaimer: The data displayed is for advisory purposes only and is not to be used for flight planning or operations.